Time;durP1;ratioP1;P1;durP2;ratioP2;P2;SDS_P1;SDS_P2;PMS_P1;PMS_P2;Temp;Humidity;BMP_temperature;BMP_pressure;BME280_temperature;BME280_humidity;BME280_pressure;Samples;Min_cycle;Max_cycle;Signal;HPM_P1;HPM_P2
2023/06/14 00:00:17;;;;;;;2.97;2.77;;;;;;;-141.84;56.31;20596.38;4971282;28;20216;-60
2023/06/14 00:02:46;;;;;;;4.10;2.80;;;;;;;-141.84;56.01;20569.94;4972085;28;20231;-59
2023/06/14 00:05:15;;;;;;;3.10;2.80;;;;;;;-141.84;55.81;20594.34;4971657;28;20287;-59
2023/06/14 00:07:43;;;;;;;3.30;3.00;;;;;;;-141.84;55.95;20576.03;4971338;28;20208;-59
2023/06/14 00:10:12;;;;;;;4.93;3.10;;;;;;;-141.84;56.20;20588.25;4971379;28;20295;-59
2023/06/14 00:12:41;;;;;;;4.40;3.00;;;;;;;-141.84;56.34;20598.41;4971432;28;20219;-59
2023/06/14 00:15:11;;;;;;;4.80;3.00;;;;;;;-141.84;57.05;20535.41;4974897;28;20232;-59
2023/06/14 00:17:40;;;;;;;3.27;2.80;;;;;;;-141.84;56.91;20602.47;4974851;28;20203;-60
2023/06/14 00:20:09;;;;;;;3.23;2.97;;;;;;;-141.84;57.76;20490.66;4975026;28;20291;-58
2023/06/14 00:22:38;;;;;;;3.37;3.00;;;;;;;-141.84;56.81;20569.94;4975094;28;20208;-59
2023/06/14 00:25:08;;;;;;;2.90;2.70;;;;;;;-141.84;56.89;20541.50;4974852;28;20235;-59
2023/06/14 00:27:56;;;;;;;3.30;2.90;;;;;;;-141.84;57.92;20488.63;4974888;28;20216;-73
2023/06/14 00:30:30;;;;;;;3.80;2.40;;;;;;;-141.84;57.57;20502.88;4974781;28;20208;-73
2023/06/14 00:32:59;;;;;;;4.27;2.80;;;;;;;-141.84;57.71;20511.00;4975138;28;20224;-73
2023/06/14 00:35:28;;;;;;;3.10;2.63;;;;;;;-141.84;58.01;20474.41;4975062;28;20204;-74
2023/06/14 00:37:57;;;;;;;3.40;3.10;;;;;;;-141.84;58.15;20490.66;4975032;28;20200;-73
2023/06/14 00:40:25;;;;;;;4.90;3.33;;;;;;;-141.84;58.05;20527.25;4975162;28;20240;-72
2023/06/14 00:42:54;;;;;;;3.40;3.10;;;;;;;-141.84;58.51;20480.50;4975448;28;20614;-74
2023/06/14 00:45:22;;;;;;;4.00;3.00;;;;;;;-141.84;58.30;20496.78;4994379;28;20262;-77
2023/06/14 00:47:55;;;;;;;3.40;3.10;;;;;;;-141.84;58.52;20496.78;4980124;28;20212;-74
2023/06/14 00:50:24;;;;;;;4.93;3.10;;;;;;;-141.84;59.01;20441.88;4974551;28;20680;-75
2023/06/14 00:52:52;;;;;;;2.90;2.70;;;;;;;-141.84;59.10;20464.25;4974506;28;20672;-74
2023/06/14 00:55:21;;;;;;;4.33;3.20;;;;;;;-141.84;59.06;20476.44;4974567;28;20651;-74
2023/06/14 00:57:51;;;;;;;3.40;3.10;;;;;;;-141.84;58.95;20498.81;4974222;28;20294;-74
2023/06/14 01:00:19;;;;;;;3.30;3.00;;;;;;;-141.84;59.39;20468.31;4974231;28;20550;-74
2023/06/14 01:02:49;;;;;;;4.07;3.20;;;;;;;-141.84;59.15;20486.59;4974417;28;20315;-73
2023/06/14 01:05:20;;;;;;;5.53;3.17;;;;;;;-141.84;58.66;20484.56;4974689;28;20235;-75
2023/06/14 01:08:06;;;;;;;3.43;3.13;;;;;;;-141.84;59.34;20470.34;4974641;28;20188;-74
2023/06/14 01:10:41;;;;;;;3.40;3.10;;;;;;;-141.84;60.24;20439.84;4974826;28;20204;-74
2023/06/14 01:13:17;;;;;;;4.17;3.33;;;;;;;-141.84;59.81;20443.91;4974456;28;20198;-74
2023/06/14 01:15:46;;;;;;;3.90;3.10;;;;;;;-141.84;60.48;20417.50;4974301;28;20258;-75
2023/06/14 01:18:17;;;;;;;4.50;3.30;;;;;;;-141.84;60.20;20409.38;4974051;28;20208;-73
2023/06/14 01:20:50;;;;;;;4.23;3.30;;;;;;;-141.84;60.10;20452.06;4973905;28;20193;-75
2023/06/14 01:23:21;;;;;;;5.37;3.23;;;;;;;-141.84;59.88;20458.16;4974132;28;20188;-74
2023/06/14 01:25:52;;;;;;;5.23;3.27;;;;;;;-141.84;59.74;20472.38;4966191;28;20204;-74
2023/06/14 01:28:22;;;;;;;3.70;2.93;;;;;;;-141.84;59.96;20476.44;4973884;28;20212;-73
2023/06/14 01:30:53;;;;;;;3.60;3.30;;;;;;;-141.84;60.64;20421.56;4973777;28;20750;-74
2023/06/14 01:33:27;;;;;;;3.70;3.37;;;;;;;-141.84;60.61;20441.88;4974321;28;20223;-75
2023/06/14 01:35:57;;;;;;;4.00;3.60;;;;;;;-141.84;61.18;20409.38;4973894;28;20575;-73
2023/06/14 01:38:28;;;;;;;3.60;3.30;;;;;;;-141.84;61.29;20415.47;4973966;28;20216;-73
2023/06/14 01:40:59;;;;;;;4.70;3.67;;;;;;;-141.84;61.23;20415.47;4973288;28;20239;-74
2023/06/14 01:43:30;;;;;;;4.73;3.50;;;;;;;-141.84;62.02;20362.63;4975298;28;20671;-73
2023/06/14 01:46:01;;;;;;;3.73;3.43;;;;;;;-141.84;61.15;20376.84;4991008;28;20602;-75
2023/06/14 01:48:29;;;;;;;6.30;3.40;;;;;;;-141.84;61.88;20407.34;4973527;28;20662;-75
2023/06/14 01:50:58;;;;;;;3.90;3.50;;;;;;;-141.84;61.43;20445.94;4973495;28;20208;-74
2023/06/14 01:53:28;;;;;;;4.97;3.20;;;;;;;-141.84;62.06;20360.59;4973724;28;20556;-74
2023/06/14 01:55:56;;;;;;;4.83;3.37;;;;;;;-141.84;62.61;20354.47;4973592;28;20292;-74
2023/06/14 01:58:26;;;;;;;3.67;3.10;;;;;;;-141.84;62.42;20374.81;4973445;28;20219;-73
2023/06/14 02:00:56;;;;;;;3.77;3.10;;;;;;;-141.84;62.60;20378.88;4973270;28;20207;-75
2023/06/14 02:03:25;;;;;;;5.07;3.00;;;;;;;-141.84;61.90;20399.19;4972919;28;20703;-74
2023/06/14 02:05:54;;;;;;;3.30;3.00;;;;;;;-141.84;62.40;20380.91;4972942;28;20204;-75
2023/06/14 02:08:23;;;;;;;3.20;2.67;;;;;;;-141.84;62.75;20364.66;4972981;28;20200;-74
2023/06/14 02:10:53;;;;;;;4.43;2.93;;;;;;;-141.84;63.03;20370.75;4973120;28;20209;-72
2023/06/14 02:13:22;;;;;;;4.07;3.10;;;;;;;-141.84;63.05;20358.56;4973251;28;20320;-75
2023/06/14 02:15:54;;;;;;;2.77;2.53;;;;;;;-141.84;63.00;20348.38;4973280;28;20259;-73
2023/06/14 02:18:23;;;;;;;3.43;3.13;;;;;;;-141.84;63.19;20354.47;4973132;28;20195;-73
2023/06/14 02:20:52;;;;;;;4.30;2.80;;;;;;;-141.84;63.12;20350.41;4965093;28;20663;-73
2023/06/14 02:23:20;;;;;;;6.40;3.00;;;;;;;-141.84;63.55;20362.63;4959604;28;20703;-73
2023/06/14 02:25:49;;;;;;;4.43;3.13;;;;;;;-141.84;63.52;20330.09;4972640;28;20579;-75
2023/06/14 02:28:19;;;;;;;4.37;3.43;;;;;;;-141.84;64.03;20338.22;4972451;28;20783;-74
2023/06/14 02:30:47;;;;;;;3.30;3.00;;;;;;;-141.84;63.78;20297.56;4972643;28;20296;-75
2023/06/14 02:33:17;;;;;;;3.57;3.23;;;;;;;-141.84;64.17;20309.75;4972241;28;20240;-74
2023/06/14 02:35:46;;;;;;;3.60;3.13;;;;;;;-141.84;64.28;20348.38;4972314;28;20664;-74
2023/06/14 02:38:15;;;;;;;3.93;3.30;;;;;;;-141.84;64.44;20309.75;4972333;28;20212;-73
2023/06/14 02:40:43;;;;;;;3.20;2.87;;;;;;;-141.84;64.33;20309.75;4972729;28;20231;-74
2023/06/14 02:43:12;;;;;;;4.97;2.87;;;;;;;-141.84;63.83;20342.28;4975307;28;20227;-75
2023/06/14 02:45:41;;;;;;;4.87;3.10;;;;;;;-141.84;63.88;20315.88;4991930;28;20188;-74
2023/06/14 02:48:11;;;;;;;5.17;2.83;;;;;;;-141.84;64.88;20309.75;4991944;28;20287;-74
2023/06/14 02:50:39;;;;;;;3.13;2.83;;;;;;;-141.84;64.69;20305.69;4992078;28;20211;-73
2023/06/14 02:53:08;;;;;;;4.67;3.07;;;;;;;-141.84;64.02;20338.22;4977898;28;20224;-74
2023/06/14 02:55:39;;;;;;;4.33;3.40;;;;;;;-141.84;64.50;20319.94;4972842;28;20208;-74
2023/06/14 02:58:08;;;;;;;4.10;2.93;;;;;;;-141.84;64.08;20338.22;4972380;28;20192;-74
2023/06/14 03:00:38;;;;;;;3.60;3.30;;;;;;;-141.84;64.43;20299.59;4971965;28;20232;-74
2023/06/14 03:03:13;;;;;;;3.60;3.30;;;;;;;-141.84;64.57;20328.06;4971959;28;20726;-74
2023/06/14 03:05:45;;;;;;;3.30;3.00;;;;;;;-141.84;64.71;20281.31;4972164;28;20191;-74
2023/06/14 03:08:16;;;;;;;4.57;2.93;;;;;;;-141.84;65.09;20315.88;4972289;28;20243;-75
2023/06/14 03:10:45;;;;;;;3.10;2.77;;;;;;;-141.84;65.16;20305.69;4971868;28;20687;-74
2023/06/14 03:13:14;;;;;;;4.33;3.20;;;;;;;-141.84;65.14;20303.66;4971802;28;20777;-75
2023/06/14 03:15:43;;;;;;;3.17;2.87;;;;;;;-141.84;65.04;20289.44;4971630;28;20240;-75
2023/06/14 03:18:12;;;;;;;4.17;3.27;;;;;;;-141.84;64.38;20326.03;4955716;28;20283;-74
2023/06/14 03:20:42;;;;;;;4.03;2.90;;;;;;;-141.84;64.22;20342.28;4968545;28;20710;-74
2023/06/14 03:23:11;;;;;;;3.87;2.90;;;;;;;-141.84;65.23;20317.91;4972212;28;20220;-73
2023/06/14 03:25:42;;;;;;;3.23;2.93;;;;;;;-141.84;65.04;20289.44;4972137;28;20242;-75
2023/06/14 03:28:10;;;;;;;3.53;3.20;;;;;;;-141.84;65.35;20289.44;4972292;28;20228;-73
2023/06/14 03:30:39;;;;;;;3.30;3.00;;;;;;;-141.84;65.62;20258.94;4971886;28;20247;-73
2023/06/14 03:33:08;;;;;;;3.20;2.90;;;;;;;-141.84;64.78;20336.19;4972002;28;20204;-73
2023/06/14 03:35:38;;;;;;;3.90;3.07;;;;;;;-141.84;65.08;20324.00;4971974;28;20220;-74
2023/06/14 03:38:07;;;;;;;4.10;3.00;;;;;;;-141.84;65.11;20279.28;4971842;28;20679;-74
2023/06/14 03:40:35;;;;;;;3.30;3.00;;;;;;;-141.84;65.43;20301.63;4971817;28;20240;-75
2023/06/14 03:43:03;;;;;;;3.37;3.07;;;;;;;-141.84;64.88;20346.34;4973458;28;20220;-73
2023/06/14 03:45:32;;;;;;;3.73;3.20;;;;;;;-141.84;65.07;20319.94;4990993;28;20540;-74
2023/06/14 03:48:01;;;;;;;5.10;3.20;;;;;;;-141.84;64.95;20281.31;4991818;28;20257;-72
2023/06/14 03:50:30;;;;;;;3.57;3.20;;;;;;;-141.84;65.34;20330.09;4994907;28;20203;-73
2023/06/14 03:53:01;;;;;;;5.50;5.03;;;;;;;-141.84;64.73;20305.69;4982492;28;20200;-73
2023/06/14 03:55:31;;;;;;;4.67;4.10;;;;;;;-141.84;64.67;20315.88;4975820;28;20185;-74
2023/06/14 03:58:02;;;;;;;4.10;3.20;;;;;;;-141.84;64.10;20370.75;4982285;28;20223;-73
2023/06/14 04:00:31;;;;;;;3.50;3.20;;;;;;;-141.84;64.61;20328.06;4975928;28;20208;-74
2023/06/14 04:03:00;;;;;;;4.13;3.73;;;;;;;-141.84;64.29;20350.41;4975726;28;20224;-75
2023/06/14 04:05:29;;;;;;;3.40;3.10;;;;;;;-141.84;64.06;20378.88;4975689;28;20207;-74
2023/06/14 04:08:00;;;;;;;4.23;3.20;;;;;;;-141.84;64.27;20332.13;4975406;28;20204;-75
2023/06/14 04:10:29;;;;;;;3.80;3.50;;;;;;;-141.84;63.59;20374.81;4975282;28;20671;-75
2023/06/14 04:12:57;;;;;;;3.57;3.27;;;;;;;-141.84;64.17;20382.94;4970512;28;20296;-75
2023/06/14 04:15:27;;;;;;;4.67;3.20;;;;;;;-141.84;64.40;20330.09;4960340;28;20212;-76
2023/06/14 04:17:57;;;;;;;3.70;3.40;;;;;;;-141.84;64.22;20368.72;4980296;28;20200;-74
2023/06/14 04:20:26;;;;;;;4.50;3.83;;;;;;;-141.84;63.54;20374.81;4979893;28;20303;-74
2023/06/14 04:22:57;;;;;;;4.67;3.63;;;;;;;-141.84;63.75;20397.16;4976451;28;20707;-75
2023/06/14 04:25:27;;;;;;;3.90;3.60;;;;;;;-141.84;63.24;20411.41;4975744;28;20216;-74
2023/06/14 04:27:57;;;;;;;4.60;3.60;;;;;;;-141.84;63.71;20407.34;4975958;28;20200;-74
2023/06/14 04:30:26;;;;;;;4.43;3.40;;;;;;;-141.84;63.07;20411.41;4976363;28;20723;-74
2023/06/14 04:32:55;;;;;;;3.90;3.60;;;;;;;-141.84;62.67;20431.72;4977776;28;20259;-75
2023/06/14 04:35:25;;;;;;;4.47;3.77;;;;;;;-141.84;62.14;20458.16;4975031;28;20199;-74
2023/06/14 04:37:54;;;;;;;4.10;3.70;;;;;;;-141.84;62.06;20484.56;4976097;28;20239;-75
2023/06/14 04:40:23;;;;;;;4.43;4.03;;;;;;;-141.84;61.96;20460.19;4977717;28;20690;-75
2023/06/14 04:42:54;;;;;;;3.93;3.63;;;;;;;-141.84;61.76;20462.22;4976103;28;20212;-74
2023/06/14 04:45:23;;;;;;;4.37;3.80;;;;;;;-141.84;61.40;20502.88;4994263;28;20282;-74
2023/06/14 04:47:57;;;;;;;4.50;3.50;;;;;;;-141.84;61.10;20527.25;4994642;28;20203;-75
2023/06/14 04:50:26;;;;;;;4.47;3.67;;;;;;;-141.84;57.04;20787.47;4995482;28;20203;-73
2023/06/14 04:52:55;;;;;;;4.35;3.83;;;;;;;-141.84;51.66;21080.19;4983191;28;20267;-76
2023/06/14 04:55:24;;;;;;;4.32;3.40;;;;;;;-141.84;46.81;21460.41;4975337;28;20258;-74
2023/06/14 04:57:54;;;;;;;4.05;3.65;;;;;;;-141.84;44.71;21598.66;4975524;28;20204;-75
2023/06/14 05:00:23;;;;;;;4.45;3.15;;;;;;;-141.84;42.38;21895.53;4973997;28;20633;-76
2023/06/14 05:02:53;;;;;;;3.60;3.10;;;;;;;-141.84;40.05;22094.81;4974526;28;20219;-75
2023/06/14 05:05:21;;;;;;;4.03;3.10;;;;;;;-141.84;40.59;22135.47;4974874;28;20214;-77
2023/06/14 05:07:50;;;;;;;3.40;3.10;;;;;;;-141.84;38.74;22342.91;4975774;28;20256;-75
2023/06/14 05:10:19;;;;;;;3.45;3.00;;;;;;;-141.84;37.45;22401.88;4976318;28;20290;-74
2023/06/14 05:12:47;;;;;;;3.42;2.85;;;;;;;-141.84;37.88;22589.00;4975437;28;20218;-76
2023/06/14 05:15:17;;;;;;;5.03;3.60;;;;;;;-141.84;37.21;22521.88;4976810;28;20250;-75
2023/06/14 05:17:52;;;;;;;3.85;3.50;;;;;;;-141.84;37.31;22532.06;4976716;28;20652;-74
2023/06/14 05:20:22;;;;;;;5.90;3.25;;;;;;;-141.84;36.25;22774.06;4980476;28;20275;-74
2023/06/14 05:22:52;;;;;;;4.75;3.53;;;;;;;-141.84;36.55;22725.25;4975186;28;20641;-74
2023/06/14 05:25:20;;;;;;;4.13;3.67;;;;;;;-141.84;35.89;22798.47;4973960;28;20596;-73
2023/06/14 05:27:50;;;;;;;5.20;4.22;;;;;;;-141.84;35.81;22676.44;4973914;28;20246;-75
2023/06/14 05:30:20;;;;;;;4.15;3.75;;;;;;;-141.84;36.32;22582.91;4974065;28;20204;-74
2023/06/14 05:32:48;;;;;;;4.13;3.70;;;;;;;-141.84;37.43;22444.59;4974545;28;20299;-73
2023/06/14 05:35:17;;;;;;;4.53;4.13;;;;;;;-141.84;38.15;22373.41;4978144;28;20208;-73
2023/06/14 05:37:47;;;;;;;4.75;4.35;;;;;;;-141.84;38.91;22227.00;4976551;28;20578;-75
2023/06/14 05:40:17;;;;;;;4.90;4.40;;;;;;;-141.84;41.05;21956.53;4973964;28;20268;-74
2023/06/14 05:42:45;;;;;;;4.80;4.38;;;;;;;-141.84;43.54;21639.31;4973683;28;20830;-73
2023/06/14 05:45:15;;;;;;;5.25;4.28;;;;;;;-141.84;46.37;21393.31;4960914;29;20229;-74
2023/06/14 05:47:46;;;;;;;4.95;4.45;;;;;;;-141.84;47.87;21273.34;4960392;29;20196;-74
2023/06/14 05:50:14;;;;;;;5.13;4.60;;;;;;;-141.84;48.92;21222.53;4960496;29;20231;-73
2023/06/14 05:52:43;;;;;;;5.35;4.82;;;;;;;-141.84;49.12;21155.44;4970246;28;20632;-74
2023/06/14 05:55:12;;;;;;;5.95;4.30;;;;;;;-141.84;49.65;21145.25;4979076;28;20200;-73
2023/06/14 05:57:42;;;;;;;5.25;4.47;;;;;;;-141.84;49.91;21161.53;4976436;28;20198;-74
2023/06/14 06:00:14;;;;;;;5.63;5.07;;;;;;;-141.84;50.12;21147.28;4974595;28;20200;-74
2023/06/14 06:02:43;;;;;;;5.53;5.03;;;;;;;-141.84;50.67;21145.25;4972664;28;20644;-75
2023/06/14 06:05:15;;;;;;;4.88;4.38;;;;;;;-141.84;50.67;21137.13;4972564;28;20695;-66
2023/06/14 06:07:44;;;;;;;6.43;5.43;;;;;;;-141.84;51.00;21102.56;4966523;28;20650;-66
2023/06/14 06:10:13;;;;;;;5.68;5.18;;;;;;;-141.84;51.07;21082.25;4972950;28;20215;-66
2023/06/14 06:12:43;;;;;;;7.65;5.10;;;;;;;-141.84;51.46;21068.00;4972007;28;20668;-67
2023/06/14 06:15:12;;;;;;;5.25;4.85;;;;;;;-141.84;50.71;21114.75;4972457;28;20599;-68
2023/06/14 06:17:42;;;;;;;6.90;5.57;;;;;;;-141.84;50.54;21116.78;4972859;28;20254;-67
2023/06/14 06:20:29;;;;;;;5.30;4.82;;;;;;;-141.84;50.60;21185.91;4972404;28;20188;-67
2023/06/14 06:22:58;;;;;;;6.05;4.82;;;;;;;-141.84;49.81;21196.09;4972564;28;20187;-66
2023/06/14 06:25:27;;;;;;;6.57;5.22;;;;;;;-141.84;49.72;21214.38;4962919;28;20720;-67
2023/06/14 06:27:57;;;;;;;6.05;5.10;;;;;;;-141.84;49.71;21218.44;4966618;28;20200;-67
2023/06/14 06:30:26;;;;;;;6.63;5.20;;;;;;;-141.84;49.57;21240.81;4972335;28;20200;-67
2023/06/14 06:32:55;;;;;;;6.85;5.20;;;;;;;-141.84;49.37;21240.81;4970708;28;20635;-68
2023/06/14 06:35:25;;;;;;;5.57;5.07;;;;;;;-141.84;49.12;21295.72;4971245;28;20624;-67
2023/06/14 06:37:55;;;;;;;7.00;4.78;;;;;;;-141.84;49.26;21279.44;4970666;28;20618;-67
2023/06/14 06:40:24;;;;;;;5.30;4.90;;;;;;;-141.84;48.53;21301.81;4969000;28;20255;-61
2023/06/14 06:42:53;;;;;;;5.30;4.90;;;;;;;-141.84;48.48;21348.56;4969930;28;20208;-60
2023/06/14 06:45:23;;;;;;;6.00;5.40;;;;;;;-141.84;48.53;21277.41;4966562;28;20610;-66
2023/06/14 06:47:53;;;;;;;6.03;5.20;;;;;;;-141.84;49.52;21236.75;4966803;28;20287;-70
2023/06/14 06:50:22;;;;;;;6.43;5.43;;;;;;;-141.84;49.63;21250.97;4970551;28;20200;-70
2023/06/14 06:52:53;;;;;;;6.05;5.45;;;;;;;-141.84;49.79;21204.22;4970072;28;20211;-63
2023/06/14 06:55:22;;;;;;;5.82;5.25;;;;;;;-141.84;49.11;21238.78;4969787;28;20683;-63
2023/06/14 06:57:52;;;;;;;6.13;5.35;;;;;;;-141.84;48.87;21212.34;4969293;28;20211;-63
2023/06/14 07:00:21;;;;;;;6.00;5.50;;;;;;;-141.84;48.99;21265.22;4968515;28;20207;-64
2023/06/14 07:02:50;;;;;;;5.93;5.43;;;;;;;-141.84;49.99;21181.84;4970247;28;20208;-62
2023/06/14 07:05:19;;;;;;;4.97;4.55;;;;;;;-141.84;49.91;21187.97;4969327;28;20599;-64
2023/06/14 07:07:48;;;;;;;7.97;4.53;;;;;;;-141.84;48.94;21187.97;4970067;28;20192;-64
2023/06/14 07:10:18;;;;;;;5.72;4.93;;;;;;;-141.84;48.34;21230.66;4971251;28;20239;-63
2023/06/14 07:12:46;;;;;;;4.95;4.15;;;;;;;-141.84;48.48;21269.28;4969968;28;20287;-63
2023/06/14 07:15:15;;;;;;;4.85;4.40;;;;;;;-141.84;48.41;21269.28;4968672;28;20192;-64
2023/06/14 07:17:45;;;;;;;5.22;4.70;;;;;;;-141.84;47.63;21287.56;4968366;28;20200;-63
2023/06/14 07:20:15;;;;;;;5.82;4.70;;;;;;;-141.84;47.68;21255.03;4969996;28;20287;-64
2023/06/14 07:22:44;;;;;;;6.35;4.72;;;;;;;-141.84;48.01;21307.91;4969364;28;20283;-63
2023/06/14 07:25:15;;;;;;;5.78;4.20;;;;;;;-141.84;47.75;21348.56;4969468;28;20710;-63
2023/06/14 07:27:47;;;;;;;6.38;4.35;;;;;;;-141.84;47.42;21350.59;4970481;28;20210;-63
2023/06/14 07:30:15;;;;;;;5.07;4.65;;;;;;;-141.84;47.22;21328.25;4969341;28;20618;-63
2023/06/14 07:32:44;;;;;;;4.90;4.47;;;;;;;-141.84;47.34;21348.56;4969536;28;20235;-63
2023/06/14 07:35:13;;;;;;;4.88;4.47;;;;;;;-141.84;47.66;21350.59;4968904;28;20209;-62
2023/06/14 07:37:42;;;;;;;5.10;4.60;;;;;;;-141.84;47.74;21358.75;4970105;28;20287;-63
2023/06/14 07:40:12;;;;;;;4.70;4.30;;;;;;;-141.84;46.96;21368.91;4975416;28;20267;-62
2023/06/14 07:42:41;;;;;;;4.78;4.38;;;;;;;-141.84;46.52;21358.75;4968601;28;20668;-66
2023/06/14 07:45:13;;;;;;;4.78;4.38;;;;;;;-141.84;47.65;21352.63;4966823;28;20227;-73
2023/06/14 07:47:42;;;;;;;5.13;3.80;;;;;;;-141.84;47.62;21370.94;4970084;28;20221;-65
2023/06/14 07:50:12;;;;;;;5.40;4.57;;;;;;;-141.84;46.81;21415.66;4969900;28;20211;-65
2023/06/14 07:52:41;;;;;;;5.65;4.28;;;;;;;-141.84;46.14;21440.06;4969434;28;20344;-65
2023/06/14 07:55:09;;;;;;;4.03;3.72;;;;;;;-141.84;45.44;21462.44;4968167;28;20229;-64
2023/06/14 07:57:38;;;;;;;4.57;4.18;;;;;;;-141.84;45.67;21440.06;4968927;28;20200;-64
2023/06/14 08:00:10;;;;;;;4.60;4.15;;;;;;;-141.84;45.72;21419.72;4968213;28;20299;-68
2023/06/14 08:02:40;;;;;;;4.80;4.40;;;;;;;-141.84;45.44;21490.91;4968669;28;20185;-68
2023/06/14 08:05:10;;;;;;;4.80;4.30;;;;;;;-141.84;44.93;21488.88;4968552;28;20244;-68
2023/06/14 08:07:39;;;;;;;4.40;4.00;;;;;;;-141.84;45.08;21460.41;4968759;28;20200;-68
2023/06/14 08:10:08;;;;;;;5.82;4.50;;;;;;;-141.84;44.40;21484.78;4977590;28;20297;-68
2023/06/14 08:12:37;;;;;;;4.55;4.15;;;;;;;-141.84;44.70;21456.34;4987774;28;20653;-65
2023/06/14 08:15:07;;;;;;;4.28;3.97;;;;;;;-141.84;45.03;21480.72;4987612;28;20231;-66
2023/06/14 08:17:44;;;;;;;4.32;3.92;;;;;;;-141.84;44.97;21460.41;4975128;28;20254;-65
2023/06/14 08:20:16;;;;;;;5.10;4.07;;;;;;;-141.84;44.93;21501.06;4968225;28;20657;-64
2023/06/14 08:22:47;;;;;;;4.32;3.92;;;;;;;-141.84;44.94;21474.63;4968512;28;20196;-62
2023/06/14 08:25:15;;;;;;;4.40;4.00;;;;;;;-141.84;44.82;21456.34;4967898;28;20251;-68
2023/06/14 08:27:44;;;;;;;4.93;4.47;;;;;;;-141.84;44.52;21425.84;4968378;28;20214;-67
2023/06/14 08:30:14;;;;;;;7.60;4.32;;;;;;;-141.84;44.64;21444.13;4968046;28;20250;-64
2023/06/14 08:32:44;;;;;;;4.45;4.05;;;;;;;-141.84;44.53;21436.00;4968055;28;20292;-69
2023/06/14 08:35:13;;;;;;;5.47;4.30;;;;;;;-141.84;44.87;21427.88;4969947;28;20262;-70
2023/06/14 08:37:42;;;;;;;5.32;4.85;;;;;;;-141.84;44.90;21440.06;4971575;28;20208;-69
2023/06/14 08:40:21;;;;;;;5.10;4.60;;;;;;;-141.84;44.26;21492.94;4986204;28;20251;-68
2023/06/14 08:42:52;;;;;;;4.75;4.35;;;;;;;-141.84;43.51;21456.34;4991188;28;20188;-62
2023/06/14 08:45:21;;;;;;;4.40;4.10;;;;;;;-141.84;43.21;21484.78;4990908;28;20211;-63
2023/06/14 08:47:59;;;;;;;5.15;4.75;;;;;;;-141.84;43.78;21484.78;4990605;28;20188;-63
2023/06/14 08:50:30;;;;;;;6.53;4.60;;;;;;;-141.84;44.16;21458.38;4990682;28;20195;-64
2023/06/14 08:53:02;;;;;;;4.90;4.50;;;;;;;-141.84;43.92;21484.78;4978527;28;20189;-66
2023/06/14 08:55:32;;;;;;;5.32;4.72;;;;;;;-141.84;43.26;21505.13;4973241;28;20247;-64
2023/06/14 08:58:05;;;;;;;5.35;4.70;;;;;;;-141.84;42.62;21517.31;4973226;28;20208;-63
2023/06/14 09:00:34;;;;;;;4.97;4.57;;;;;;;-141.84;43.00;21484.78;4973542;28;20208;-63
2023/06/14 09:03:10;;;;;;;4.15;3.75;;;;;;;-141.84;42.49;21519.34;4973654;28;20579;-61
2023/06/14 09:05:39;;;;;;;4.55;4.15;;;;;;;-141.84;42.68;21513.25;4973333;28;20211;-63
2023/06/14 09:08:07;;;;;;;5.22;3.70;;;;;;;-141.84;42.11;21572.22;4973240;28;20660;-61
2023/06/14 09:10:37;;;;;;;4.75;4.35;;;;;;;-141.84;41.86;21566.13;4991362;28;20207;-63
2023/06/14 09:13:07;;;;;;;4.82;4.22;;;;;;;-141.84;42.14;21614.94;4986919;28;20204;-62
2023/06/14 09:15:36;;;;;;;4.43;4.13;;;;;;;-141.84;42.04;21568.16;4973025;28;20204;-62
2023/06/14 09:18:07;;;;;;;4.72;4.22;;;;;;;-141.84;41.70;21572.22;4973150;28;20259;-63
2023/06/14 09:20:35;;;;;;;4.25;3.95;;;;;;;-141.84;42.01;21663.72;4973288;28;20285;-65
2023/06/14 09:23:07;;;;;;;4.85;3.60;;;;;;;-141.84;40.91;21629.16;4973599;28;20204;-64
2023/06/14 09:25:44;;;;;;;4.25;3.80;;;;;;;-141.84;41.23;21596.63;4972585;28;20534;-63
2023/06/14 09:28:13;;;;;;;3.92;3.50;;;;;;;-141.84;40.72;21665.75;4973292;28;20184;-62
2023/06/14 09:30:42;;;;;;;4.68;3.40;;;;;;;-141.84;41.01;21614.94;4973056;28;20688;-62
2023/06/14 09:33:17;;;;;;;4.03;2.90;;;;;;;-141.84;40.02;21643.38;4972578;28;20210;-61
2023/06/14 09:35:47;;;;;;;3.88;3.20;;;;;;;-141.84;40.06;21730.81;4972781;28;20700;-61
2023/06/14 09:38:15;;;;;;;3.08;2.88;;;;;;;-141.84;39.59;21806.06;4973206;28;20629;-61
2023/06/14 09:40:44;;;;;;;3.22;3.03;;;;;;;-141.84;38.72;21978.91;4991921;28;20211;-63
2023/06/14 09:43:12;;;;;;;3.83;3.30;;;;;;;-141.84;38.53;22070.41;4992139;28;20691;-63
2023/06/14 09:45:45;;;;;;;3.50;3.20;;;;;;;-141.84;38.20;22086.69;4991462;28;20230;-66
2023/06/14 09:48:17;;;;;;;5.97;3.42;;;;;;;-141.84;37.60;22147.69;4992049;28;20557;-63
2023/06/14 09:50:48;;;;;;;5.05;3.25;;;;;;;-141.84;37.33;22102.94;4992327;28;20194;-66
2023/06/14 09:53:21;;;;;;;3.85;3.50;;;;;;;-141.84;38.46;21974.84;4976751;28;20201;-65
2023/06/14 09:55:53;;;;;;;4.00;3.70;;;;;;;-141.84;39.79;21791.81;4972717;28;20215;-63
2023/06/14 09:58:23;;;;;;;3.75;3.45;;;;;;;-141.84;39.76;21842.66;4973163;28;20196;-60
2023/06/14 10:00:53;;;;;;;4.20;3.80;;;;;;;-141.84;40.12;21844.69;4972656;28;20308;-61
2023/06/14 10:03:31;;;;;;;3.75;3.40;;;;;;;-141.84;39.76;21871.13;4972534;28;20239;-60
2023/06/14 10:06:20;;;;;;;6.32;3.45;;;;;;;-141.84;39.38;21883.31;4972689;28;20270;-60
2023/06/14 10:08:50;;;;;;;3.97;2.92;;;;;;;-141.84;37.90;22064.31;4974594;28;20290;-61
2023/06/14 10:11:19;;;;;;;3.08;2.88;;;;;;;-141.84;37.49;22192.44;4972150;28;20767;-59
2023/06/14 10:13:48;;;;;;;4.00;3.22;;;;;;;-141.84;37.17;22180.22;4972526;28;20676;-59
2023/06/14 10:16:21;;;;;;;3.90;3.08;;;;;;;-141.84;36.73;22214.78;4972602;28;20204;-59
2023/06/14 10:19:00;;;;;;;3.35;3.05;;;;;;;-141.84;37.28;22202.59;4972152;28;20557;-59
2023/06/14 10:21:38;;;;;;;3.28;2.92;;;;;;;-141.84;37.00;22227.00;4972087;28;20637;-60
2023/06/14 10:24:11;;;;;;;4.20;2.92;;;;;;;-141.84;37.10;22206.66;4972077;28;20456;-60
2023/06/14 10:26:52;;;;;;;3.17;2.97;;;;;;;-141.84;37.49;22131.41;4972353;28;20255;-59
2023/06/14 10:29:21;;;;;;;2.75;2.55;;;;;;;-141.84;37.90;22050.06;4972182;28;20295;-60
2023/06/14 10:31:51;;;;;;;3.38;3.08;;;;;;;-141.84;38.41;22005.34;4972172;28;20204;-59
2023/06/14 10:34:25;;;;;;;3.47;3.03;;;;;;;-141.84;38.68;21911.78;4970389;28;20204;-59
2023/06/14 10:37:07;;;;;;;5.70;3.00;;;;;;;-141.84;39.19;21842.66;4982801;28;20204;-59
2023/06/14 10:39:41;;;;;;;3.28;2.97;;;;;;;-141.84;39.62;21840.63;4975733;28;20212;-59
2023/06/14 10:42:10;;;;;;;2.60;2.40;;;;;;;-141.84;39.78;21793.84;4982339;28;20222;-60
2023/06/14 10:44:46;;;;;;;2.95;2.75;;;;;;;-141.84;39.62;21761.31;4983522;28;20266;-59
2023/06/14 10:47:27;;;;;;;2.90;2.70;;;;;;;-141.84;39.76;21769.47;4971502;28;20309;-59
2023/06/14 10:49:59;;;;;;;3.97;3.00;;;;;;;-141.84;39.95;21728.78;4971667;28;20499;-60
2023/06/14 10:52:29;;;;;;;2.70;2.50;;;;;;;-141.84;40.02;21736.94;4972271;28;20670;-60
2023/06/14 10:55:10;;;;;;;3.20;2.90;;;;;;;-141.84;40.05;21736.94;4972113;28;20192;-59
2023/06/14 10:57:42;;;;;;;3.20;2.63;;;;;;;-141.84;40.21;21808.09;4971040;28;20204;-59
2023/06/14 11:00:21;;;;;;;2.97;2.78;;;;;;;-141.84;39.73;21797.94;4978198;28;20228;-60
2023/06/14 11:03:30;;;;;;;3.10;2.90;;;;;;;-141.84;39.37;21856.91;4971870;28;20689;-59
2023/06/14 11:06:00;;;;;;;3.38;3.00;;;;;;;-141.84;40.05;21799.97;4972514;28;20196;-60
2023/06/14 11:08:50;;;;;;;3.50;2.72;;;;;;;-141.84;40.17;21808.09;4977033;28;20192;-60
2023/06/14 11:11:19;;;;;;;3.50;3.20;;;;;;;-141.84;40.29;21822.31;4991034;28;20238;-59
2023/06/14 11:13:47;;;;;;;4.13;2.90;;;;;;;-141.84;39.76;21867.06;4984693;28;20671;-60
2023/06/14 11:16:18;;;;;;;4.63;3.08;;;;;;;-141.84;39.76;21928.06;4978662;28;20294;-60
2023/06/14 11:18:49;;;;;;;3.40;3.10;;;;;;;-141.84;39.35;21972.81;4989769;28;20640;-60
2023/06/14 11:21:19;;;;;;;3.50;3.20;;;;;;;-141.84;39.04;22058.22;4990808;28;20261;-59
2023/06/14 11:23:51;;;;;;;3.70;2.95;;;;;;;-141.84;39.16;22054.13;4990958;28;20226;-60
2023/06/14 11:26:30;;;;;;;3.38;2.92;;;;;;;-141.84;39.43;21960.59;4975942;28;20206;-59
2023/06/14 11:29:00;;;;;;;3.30;3.00;;;;;;;-141.84;39.98;21919.94;4971632;28;20290;-60
2023/06/14 11:31:29;;;;;;;2.83;2.63;;;;;;;-141.84;39.96;21826.41;4971612;28;20200;-60